createdAt,value
2017-07-19T00:00:24.609Z,66.33
2017-07-19T00:00:50.769Z,66.43
2017-07-19T00:01:16.899Z,66.97
2017-07-19T00:01:42.990Z,66.69
2017-07-19T00:02:09.122Z,66.49
2017-07-19T00:02:35.283Z,66.78
2017-07-19T00:03:01.425Z,67.26
2017-07-19T00:03:27.572Z,67.26
2017-07-19T00:03:53.715Z,66.88
2017-07-19T00:04:19.829Z,66.88
2017-07-19T00:04:45.973Z,67.46
2017-07-19T00:05:12.138Z,67.16
2017-07-19T00:05:38.259Z,67.07
2017-07-19T00:06:04.421Z,67.46
2017-07-19T00:06:30.584Z,67.46
2017-07-19T00:06:56.784Z,67.46
2017-07-19T00:07:22.944Z,67.46
2017-07-19T00:07:49.035Z,67.07
2017-07-19T00:08:15.181Z,67.36
2017-07-19T00:08:41.368Z,67.16
2017-07-19T00:09:07.485Z,67.46
2017-07-19T00:09:33.626Z,68.23
2017-07-19T00:09:59.764Z,68.32
2017-07-19T00:10:25.885Z,67.94
2017-07-19T00:10:52.027Z,67.65
2017-07-19T00:11:18.155Z,67.65
2017-07-19T00:11:44.301Z,67.84
2017-07-19T00:12:10.435Z,68.04
2017-07-19T00:12:36.583Z,67.74
2017-07-19T00:13:02.700Z,68.52
2017-07-19T00:13:28.866Z,68.32
2017-07-19T00:13:54.993Z,68.42
2017-07-19T00:14:21.089Z,68.68
2017-07-19T00:14:47.268Z,68.77
2017-07-19T00:15:13.422Z,68.87
2017-07-19T00:15:39.538Z,68.58
2017-07-19T00:16:05.645Z,68.87
2017-07-19T00:16:31.803Z,68.87
2017-07-19T00:16:57.898Z,68.58
2017-07-19T00:17:24.080Z,68.71
2017-07-19T00:17:50.171Z,68.68
2017-07-19T00:18:16.332Z,68.48
2017-07-19T00:18:42.460Z,68.58
2017-07-19T00:19:08.575Z,68.68
2017-07-19T00:19:34.680Z,68.58
2017-07-19T00:20:00.812Z,69.06
2017-07-19T00:20:26.950Z,68.58
2017-07-19T00:20:53.075Z,68.68
2017-07-19T00:21:19.264Z,68.77
2017-07-19T00:21:45.378Z,68.48
2017-07-19T00:22:11.475Z,68.77
2017-07-19T00:22:37.600Z,68.68
2017-07-19T00:23:03.781Z,68.38
2017-07-19T00:23:29.916Z,68.58
2017-07-19T00:23:56.003Z,68.77
2017-07-19T00:24:22.151Z,68.77
2017-07-19T00:24:48.312Z,68.68
2017-07-19T00:25:14.450Z,68.68
2017-07-19T00:25:40.598Z,68.58
2017-07-19T00:26:06.732Z,68.58
2017-07-19T00:26:32.951Z,69.06
2017-07-19T00:26:59.016Z,68.68
2017-07-19T00:27:25.125Z,68.48
2017-07-19T00:27:51.250Z,68.68
2017-07-19T00:28:17.405Z,68.68
2017-07-19T00:28:43.545Z,68.77
2017-07-19T00:29:09.691Z,68.87
2017-07-19T00:29:35.853Z,68.87
2017-07-19T00:30:01.972Z,68.96
2017-07-19T00:30:28.113Z,69.45
2017-07-19T00:30:54.245Z,69.45
2017-07-19T00:31:20.375Z,69.54
2017-07-19T00:31:46.463Z,69.54
2017-07-19T00:32:12.620Z,69.45
2017-07-19T00:32:38.801Z,69.06
2017-07-19T00:33:04.917Z,69.06
2017-07-19T00:33:31.072Z,68.77
2017-07-19T00:33:57.236Z,68.68
2017-07-19T00:34:23.377Z,69.06
2017-07-19T00:34:49.500Z,69.06
2017-07-19T00:35:15.605Z,68.96
2017-07-19T00:35:41.748Z,68.96
2017-07-19T00:36:07.866Z,69.35
2017-07-19T00:36:34.002Z,69.45
2017-07-19T00:37:00.152Z,69.45
2017-07-19T00:37:26.316Z,69.54
2017-07-19T00:37:52.454Z,69.15
2017-07-19T00:38:18.580Z,69.25
2017-07-19T00:38:44.719Z,69.35
2017-07-19T00:39:10.849Z,69.35
2017-07-19T00:39:36.993Z,69.25
2017-07-19T00:40:03.154Z,69.45
2017-07-19T00:40:29.250Z,69.15
2017-07-19T00:40:55.416Z,69.25
2017-07-19T00:41:21.602Z,69.25
2017-07-19T00:41:47.723Z,69.45
2017-07-19T00:42:13.864Z,69.54
2017-07-19T00:42:39.998Z,69.15
2017-07-19T00:43:06.125Z,69.25
2017-07-19T00:43:32.286Z,69.45
2017-07-19T00:43:58.418Z,69.54
2017-07-19T00:44:24.579Z,69.25
2017-07-19T00:44:50.725Z,69.45
2017-07-19T00:45:16.905Z,69.73
2017-07-19T00:45:43.023Z,69.35
2017-07-19T00:46:09.154Z,69.35
2017-07-19T00:46:35.253Z,69.35
2017-07-19T00:47:01.392Z,69.45
2017-07-19T00:47:27.565Z,69.35
2017-07-19T00:47:53.651Z,69.06
2017-07-19T00:48:19.764Z,69.54
2017-07-19T00:48:45.891Z,69.45
2017-07-19T00:49:12.025Z,69.64
2017-07-19T00:49:38.167Z,69.73
2017-07-19T00:50:04.262Z,69.83
2017-07-19T00:50:30.408Z,69.83
2017-07-19T00:50:56.535Z,69.35
2017-07-19T00:51:22.671Z,70.02
2017-07-19T00:51:48.812Z,69.51
2017-07-19T00:52:14.937Z,70.18
2017-07-19T00:52:41.045Z,69.79
2017-07-19T00:53:07.162Z,70.37
2017-07-19T00:53:33.284Z,70.09
2017-07-19T00:53:59.418Z,70.09
2017-07-19T00:54:25.563Z,70.18
2017-07-19T00:54:51.680Z,70.37
2017-07-19T00:55:17.814Z,70.28
2017-07-19T00:55:43.937Z,70.09
2017-07-19T00:56:10.091Z,69.99
2017-07-19T00:56:36.207Z,69.99
2017-07-19T00:57:02.304Z,70.18
2017-07-19T00:57:28.436Z,70.09
2017-07-19T00:57:54.556Z,70.09
2017-07-19T00:58:20.696Z,70.09
2017-07-19T00:58:46.834Z,70.37
2017-07-19T00:59:12.981Z,70.28
2017-07-19T00:59:39.172Z,70.18
2017-07-19T01:00:05.303Z,70.18
2017-07-19T01:00:31.430Z,70.09
2017-07-19T01:00:57.522Z,69.99
2017-07-19T01:01:23.625Z,70.56
2017-07-19T01:01:49.716Z,70.09
2017-07-19T01:02:15.912Z,69.99
2017-07-19T01:02:42.011Z,70.47
2017-07-19T01:03:08.126Z,70.09
2017-07-19T01:03:34.289Z,69.89
2017-07-19T01:04:00.416Z,70.09
2017-07-19T01:04:26.581Z,69.93
2017-07-19T01:04:52.685Z,70.09
2017-07-19T01:05:18.793Z,69.99
2017-07-19T01:05:44.878Z,70.47
2017-07-19T01:06:11.029Z,70.09
2017-07-19T01:06:37.166Z,70.18
2017-07-19T01:07:03.255Z,69.89
2017-07-19T01:07:29.360Z,70.18
2017-07-19T01:07:55.503Z,70.18
2017-07-19T01:08:21.635Z,70.09
2017-07-19T01:08:47.767Z,70.37
2017-07-19T01:09:13.853Z,70.76
2017-07-19T01:09:40.026Z,70.86
2017-07-19T01:10:06.131Z,70.56
2017-07-19T01:10:32.271Z,70.66
2017-07-19T01:10:58.393Z,70.47
2017-07-19T01:11:24.499Z,70.37
2017-07-19T01:11:50.621Z,70.37
2017-07-19T01:12:16.787Z,70.66
2017-07-19T01:12:42.890Z,70.47
2017-07-19T01:13:09.042Z,70.18
2017-07-19T01:13:35.146Z,70.18
2017-07-19T01:14:01.311Z,70.09
2017-07-19T01:14:27.430Z,70.37
2017-07-19T01:14:53.537Z,70.09
2017-07-19T01:15:19.659Z,70.09
2017-07-19T01:15:45.749Z,70.18
2017-07-19T01:16:11.917Z,70.09
2017-07-19T01:16:38.062Z,70.76
2017-07-19T01:17:04.180Z,70.47
2017-07-19T01:17:30.336Z,70.47
2017-07-19T01:17:56.489Z,70.66
2017-07-19T01:18:22.627Z,70.47
2017-07-19T01:18:48.754Z,70.66
2017-07-19T01:19:14.886Z,70.56
2017-07-19T01:19:40.976Z,70.66
2017-07-19T01:20:07.106Z,70.56
2017-07-19T01:20:33.243Z,70.28
2017-07-19T01:20:59.358Z,70.09
2017-07-19T01:21:25.503Z,69.89
2017-07-19T01:21:51.636Z,70.09
2017-07-19T01:22:17.756Z,69.99
2017-07-19T01:22:43.846Z,70.28
2017-07-19T01:23:10.011Z,70.47
2017-07-19T01:23:36.164Z,70.86
2017-07-19T01:24:02.326Z,70.09
2017-07-19T01:24:28.467Z,70.18
2017-07-19T01:24:54.589Z,70.18
2017-07-19T01:25:20.693Z,70.47
2017-07-19T01:25:46.788Z,70.66
2017-07-19T01:26:12.928Z,70.56
2017-07-19T01:26:39.038Z,70.66
2017-07-19T01:27:05.161Z,70.47
2017-07-19T01:27:31.301Z,70.47
2017-07-19T01:27:57.486Z,70.66
2017-07-19T01:28:23.639Z,70.18
2017-07-19T01:28:49.809Z,70.47
2017-07-19T01:29:15.991Z,70.56
2017-07-19T01:29:42.133Z,70.18
2017-07-19T01:30:08.272Z,69.99
2017-07-19T01:30:34.425Z,69.99
2017-07-19T01:31:00.514Z,70.28
2017-07-19T01:31:26.647Z,70.47
2017-07-19T01:31:52.802Z,70.28
2017-07-19T01:32:18.941Z,70.37
2017-07-19T01:32:45.044Z,70.28
2017-07-19T01:33:11.178Z,70.18
2017-07-19T01:33:37.291Z,70.28
2017-07-19T01:34:03.440Z,70.09
2017-07-19T01:34:29.575Z,70.18
2017-07-19T01:34:55.691Z,69.89
2017-07-19T01:35:21.879Z,70.28
2017-07-19T01:35:47.970Z,69.89
2017-07-19T01:36:14.100Z,70.28
2017-07-19T01:36:40.235Z,70.09
2017-07-19T01:37:06.350Z,70.28
2017-07-19T01:37:32.522Z,69.99
2017-07-19T01:37:58.630Z,69.99
2017-07-19T01:38:24.774Z,69.99
2017-07-19T01:38:50.896Z,70.09
2017-07-19T01:39:17.032Z,70.28
2017-07-19T01:39:43.151Z,70.56
2017-07-19T01:40:09.313Z,70.18
2017-07-19T01:40:35.443Z,70.56
2017-07-19T01:41:01.568Z,70.66
2017-07-19T01:41:27.731Z,70.18
2017-07-19T01:41:53.849Z,70.18
2017-07-19T01:42:19.970Z,70.18
2017-07-19T01:42:46.133Z,70.37
2017-07-19T01:43:12.308Z,70.76
2017-07-19T01:43:38.446Z,70.56
2017-07-19T01:44:04.608Z,70.76
2017-07-19T01:44:30.736Z,70.37
2017-07-19T01:44:56.871Z,70.28
2017-07-19T01:45:23.005Z,70.86
2017-07-19T01:45:49.134Z,70.47
2017-07-19T01:46:15.283Z,70.76
2017-07-19T01:46:41.399Z,69.89
2017-07-19T01:47:07.563Z,69.99
2017-07-19T01:47:33.755Z,69.99
2017-07-19T01:47:59.937Z,70.28
2017-07-19T01:48:26.051Z,69.99
2017-07-19T01:48:52.156Z,70.09
2017-07-19T01:49:18.369Z,70.18
2017-07-19T01:49:44.487Z,70.86
2017-07-19T01:50:10.593Z,70.37
2017-07-19T01:50:36.748Z,70.76
2017-07-19T01:51:02.864Z,70.28
2017-07-19T01:51:28.989Z,70.76
2017-07-19T01:51:55.135Z,70.37
2017-07-19T01:52:21.271Z,69.79
2017-07-19T01:52:47.372Z,70.09
2017-07-19T01:53:13.488Z,70.28
2017-07-19T01:53:39.643Z,70.37
2017-07-19T01:54:05.777Z,70.28
2017-07-19T01:54:31.921Z,70.37
2017-07-19T01:54:58.044Z,70.66
2017-07-19T01:55:24.235Z,70.76
2017-07-19T01:55:50.376Z,70.18
2017-07-19T01:56:16.556Z,70.66
2017-07-19T01:56:42.709Z,70.37
2017-07-19T01:57:08.826Z,70.18
2017-07-19T01:57:34.960Z,70.47
2017-07-19T01:58:01.048Z,70.18
2017-07-19T01:58:27.219Z,70.47
2017-07-19T01:58:53.381Z,70.66
2017-07-19T01:59:19.521Z,70.28
2017-07-19T01:59:45.644Z,70.28
2017-07-19T02:00:11.807Z,70.18
2017-07-19T02:00:37.924Z,70.28
2017-07-19T02:01:04.037Z,70.28
2017-07-19T02:01:30.199Z,70.09
2017-07-19T02:01:56.325Z,70.18
2017-07-19T02:02:22.439Z,70.18
2017-07-19T02:02:48.628Z,70.28
2017-07-19T02:03:14.755Z,70.47
2017-07-19T02:03:40.872Z,70.37
2017-07-19T02:04:07.024Z,70.37
2017-07-19T02:04:33.215Z,70.37
2017-07-19T02:04:59.304Z,70.66
2017-07-19T02:05:25.405Z,70.37
2017-07-19T02:05:51.537Z,70.37
2017-07-19T02:06:17.677Z,70.76
2017-07-19T02:06:43.824Z,70.37
2017-07-19T02:07:10.013Z,70.28
2017-07-19T02:07:36.106Z,70.28
2017-07-19T02:08:02.221Z,70.66
2017-07-19T02:08:28.389Z,70.47
2017-07-19T02:08:54.483Z,70.76
2017-07-19T02:09:20.586Z,70.76
2017-07-19T02:09:46.724Z,70.18
2017-07-19T02:10:12.867Z,70.56
2017-07-19T02:10:39.001Z,70.76
2017-07-19T02:11:05.096Z,71.53
2017-07-19T02:11:31.236Z,71.01
2017-07-19T02:11:57.345Z,71.11
2017-07-19T02:12:23.470Z,70.92
2017-07-19T02:12:49.584Z,70.95
2017-07-19T02:13:15.748Z,70.92
2017-07-19T02:13:41.877Z,71.01
2017-07-19T02:14:07.975Z,71.04
2017-07-19T02:14:34.095Z,70.95
2017-07-19T02:15:00.236Z,70.92
2017-07-19T02:15:26.401Z,71.14
2017-07-19T02:15:52.527Z,71.11
2017-07-19T02:16:18.695Z,70.95
2017-07-19T02:16:44.879Z,71.04
2017-07-19T02:17:10.977Z,71.01
2017-07-19T02:17:37.092Z,71.34
2017-07-19T02:18:03.195Z,71.01
2017-07-19T02:18:29.303Z,71.11
2017-07-19T02:18:55.415Z,71.34
2017-07-19T02:19:21.566Z,71.53
2017-07-19T02:19:47.684Z,71.59
2017-07-19T02:20:13.819Z,71.24
2017-07-19T02:20:39.947Z,71.49
2017-07-19T02:21:06.088Z,71.3
2017-07-19T02:21:32.192Z,71.49
2017-07-19T02:21:58.354Z,71.34
2017-07-19T02:22:24.493Z,71.2
2017-07-19T02:22:50.641Z,71.4
2017-07-19T02:23:16.832Z,71.53
2017-07-19T02:23:42.947Z,71.2
2017-07-19T02:24:09.044Z,71.97
2017-07-19T02:24:35.150Z,72.11
2017-07-19T02:25:01.297Z,71.91
2017-07-19T02:25:27.429Z,71.88
2017-07-19T02:25:53.516Z,71.49
2017-07-19T02:26:19.642Z,71.59
2017-07-19T02:26:45.746Z,72.07
2017-07-19T02:27:11.885Z,71.69
2017-07-19T02:27:37.982Z,71.78
2017-07-19T02:28:04.144Z,71.97
2017-07-19T02:28:30.257Z,72.07
2017-07-19T02:28:56.330Z,71.78
2017-07-19T02:29:22.492Z,71.69
2017-07-19T02:29:48.647Z,71.97
2017-07-19T02:30:14.834Z,71.88
2017-07-19T02:30:40.969Z,71.88
2017-07-19T02:31:07.137Z,71.97
2017-07-19T02:31:33.298Z,71.97
2017-07-19T02:31:59.444Z,71.88
2017-07-19T02:32:25.580Z,71.59
2017-07-19T02:32:51.693Z,71.69
2017-07-19T02:33:17.838Z,71.43
2017-07-19T02:33:43.956Z,71.2
2017-07-19T02:34:10.139Z,71.49
2017-07-19T02:34:36.322Z,71.88
2017-07-19T02:35:02.459Z,71.49
2017-07-19T02:35:28.591Z,71.4
2017-07-19T02:35:54.781Z,72.07
2017-07-19T02:36:20.875Z,72.17
2017-07-19T02:36:47.026Z,71.88
2017-07-19T02:37:13.114Z,71.88
2017-07-19T02:37:39.286Z,72.07
2017-07-19T02:38:05.380Z,71.88
2017-07-19T02:38:31.542Z,71.88
2017-07-19T02:38:57.753Z,71.88
2017-07-19T02:39:23.944Z,71.78
2017-07-19T02:39:50.058Z,72.36
2017-07-19T02:40:16.237Z,72.45
2017-07-19T02:40:42.371Z,72.07
2017-07-19T02:41:08.539Z,72.17
2017-07-19T02:41:34.710Z,72.65
2017-07-19T02:42:00.885Z,72.17
2017-07-19T02:42:27.039Z,71.78
2017-07-19T02:42:53.199Z,71.88
2017-07-19T02:43:19.334Z,72.07
2017-07-19T02:43:45.461Z,71.69
2017-07-19T02:44:11.597Z,71.78
2017-07-19T02:44:37.712Z,71.88
2017-07-19T02:45:03.835Z,71.69
2017-07-19T02:45:29.996Z,71.69
2017-07-19T02:45:56.144Z,71.49
2017-07-19T02:46:22.257Z,71.88
2017-07-19T02:46:48.447Z,71.59
2017-07-19T02:47:14.567Z,71.97
2017-07-19T02:47:40.705Z,71.59
2017-07-19T02:48:06.869Z,72.07
2017-07-19T02:48:33.028Z,72.07
2017-07-19T02:48:59.149Z,72.07
2017-07-19T02:49:25.290Z,71.88
2017-07-19T02:49:51.480Z,71.97
2017-07-19T02:50:17.634Z,72.07
2017-07-19T02:50:43.755Z,71.97
2017-07-19T02:51:09.890Z,72.07
2017-07-19T02:51:36.032Z,72.36
2017-07-19T02:52:02.185Z,72.07
2017-07-19T02:52:28.342Z,72.17
2017-07-19T02:52:54.485Z,72.74
2017-07-19T02:53:20.647Z,72.45
2017-07-19T02:53:46.786Z,72.84
2017-07-19T02:54:12.911Z,73.13
2017-07-19T02:54:39.045Z,72.94
2017-07-19T02:55:05.159Z,72.94
2017-07-19T02:55:31.282Z,72.94
2017-07-19T02:55:57.387Z,71.97
2017-07-19T02:56:23.557Z,72.94
2017-07-19T02:56:49.649Z,71.97
2017-07-19T02:57:15.788Z,72.26
2017-07-19T02:57:41.883Z,72.26
2017-07-19T02:58:08.023Z,73.03
2017-07-19T02:58:34.179Z,72.94
2017-07-19T02:59:00.274Z,72.55
2017-07-19T02:59:26.407Z,72.74
2017-07-19T02:59:52.576Z,72.55
2017-07-19T03:00:18.693Z,72.74
2017-07-19T03:00:44.883Z,72.55
2017-07-19T03:01:11.009Z,72.84
2017-07-19T03:01:37.175Z,72.55
2017-07-19T03:02:03.364Z,72.26
2017-07-19T03:02:29.546Z,72.55
2017-07-19T03:02:55.662Z,72.84
2017-07-19T03:03:21.845Z,72.55
2017-07-19T03:03:48.012Z,72.36
2017-07-19T03:04:14.203Z,72.65
2017-07-19T03:04:40.352Z,72.84
2017-07-19T03:05:06.494Z,72.65
2017-07-19T03:05:32.653Z,72.55
2017-07-19T03:05:58.837Z,72.26
2017-07-19T03:06:24.978Z,72.36
2017-07-19T03:06:51.130Z,72.55
2017-07-19T03:07:17.291Z,72.65
2017-07-19T03:07:43.403Z,72.74
2017-07-19T03:08:09.529Z,73.13
2017-07-19T03:08:35.689Z,73.03
2017-07-19T03:09:01.837Z,72.94
2017-07-19T03:09:27.950Z,72.94
2017-07-19T03:09:54.047Z,72.94
2017-07-19T03:10:20.149Z,72.74
2017-07-19T03:10:46.283Z,72.07
2017-07-19T03:11:12.397Z,72.65
2017-07-19T03:11:38.570Z,72.45
2017-07-19T03:12:04.676Z,72.17
2017-07-19T03:12:30.793Z,72.36
2017-07-19T03:12:56.891Z,72.17
2017-07-19T03:13:22.996Z,72.26
2017-07-19T03:13:49.113Z,72.94
2017-07-19T03:14:15.279Z,72.55
2017-07-19T03:14:41.444Z,72.26
2017-07-19T03:15:07.570Z,72.17
2017-07-19T03:15:33.723Z,72.36
2017-07-19T03:15:59.815Z,72.26
2017-07-19T03:16:25.935Z,72.45
2017-07-19T03:16:52.071Z,73.03
2017-07-19T03:17:18.219Z,72.84
2017-07-19T03:17:44.381Z,72.74
2017-07-19T03:18:10.567Z,72.84
2017-07-19T03:18:36.690Z,72.94
2017-07-19T03:19:02.853Z,72.74
2017-07-19T03:19:29.036Z,72.74
2017-07-19T03:19:55.187Z,73.22
2017-07-19T03:20:21.327Z,72.94
2017-07-19T03:20:47.456Z,73.03
2017-07-19T03:21:13.547Z,73.03
2017-07-19T03:21:39.684Z,73.03
2017-07-19T03:22:05.860Z,72.84
2017-07-19T03:22:31.978Z,72.71
2017-07-19T03:22:58.138Z,72.9
2017-07-19T03:23:24.269Z,72.84
2017-07-19T03:23:50.381Z,72.65
2017-07-19T03:24:16.484Z,72.74
2017-07-19T03:24:42.592Z,72.94
2017-07-19T03:25:08.703Z,72.94
2017-07-19T03:25:34.842Z,72.94
2017-07-19T03:26:00.997Z,72.55
2017-07-19T03:26:27.110Z,72.74
2017-07-19T03:26:53.264Z,72.65
2017-07-19T03:27:19.412Z,72.84
2017-07-19T03:27:45.545Z,72.84
2017-07-19T03:28:11.732Z,72.84
2017-07-19T03:28:37.848Z,72.74
2017-07-19T03:29:04.021Z,72.71
2017-07-19T03:29:30.185Z,72.9
2017-07-19T03:29:56.325Z,72.9
2017-07-19T03:30:22.471Z,72.74
2017-07-19T03:30:48.617Z,72.9
2017-07-19T03:31:14.772Z,72.65
2017-07-19T03:31:40.889Z,72.74
2017-07-19T03:32:07.022Z,72.61
2017-07-19T03:32:33.201Z,72.9
2017-07-19T03:32:59.337Z,72.94
2017-07-19T03:33:25.525Z,72.71
2017-07-19T03:33:51.703Z,72.74
2017-07-19T03:34:17.817Z,72.55
2017-07-19T03:34:43.920Z,72.71
2017-07-19T03:35:10.081Z,72.55
2017-07-19T03:35:36.191Z,72.84
2017-07-19T03:36:02.343Z,72.55
2017-07-19T03:36:28.528Z,72.84
2017-07-19T03:36:54.693Z,72.94
2017-07-19T03:37:20.815Z,72.94
2017-07-19T03:37:46.963Z,72.45
2017-07-19T03:38:13.146Z,72.07
2017-07-19T03:38:39.299Z,72.74
2017-07-19T03:39:05.443Z,72.36
2017-07-19T03:39:31.569Z,72.84
2017-07-19T03:39:57.703Z,72.94
2017-07-19T03:40:23.871Z,72.07
2017-07-19T03:40:49.991Z,72.45
2017-07-19T03:41:16.124Z,72.94
2017-07-19T03:41:42.242Z,73.22
2017-07-19T03:42:08.359Z,72.94
2017-07-19T03:42:34.499Z,73.03
2017-07-19T03:43:00.624Z,72.84
2017-07-19T03:43:26.778Z,72.74
2017-07-19T03:43:52.917Z,72.74
2017-07-19T03:44:19.015Z,72.71
2017-07-19T03:44:45.170Z,72.71
2017-07-19T03:45:11.314Z,72.71
2017-07-19T03:45:37.456Z,72.61
2017-07-19T03:46:03.564Z,72.74
2017-07-19T03:46:29.661Z,72.55
2017-07-19T03:46:55.775Z,72.84
2017-07-19T03:47:21.935Z,72.84
2017-07-19T03:47:48.062Z,72.65
2017-07-19T03:48:14.179Z,72.55
2017-07-19T03:48:40.307Z,72.84
2017-07-19T03:49:06.426Z,72.84
2017-07-19T03:49:32.561Z,72.26
2017-07-19T03:49:58.707Z,73.03
2017-07-19T03:50:24.820Z,72.55
2017-07-19T03:50:50.926Z,71.97
2017-07-19T03:51:17.055Z,72.17
2017-07-19T03:51:43.197Z,72.84
2017-07-19T03:52:09.528Z,72.84
2017-07-19T03:52:35.692Z,72.17
2017-07-19T03:53:01.855Z,72.07
2017-07-19T03:53:28.029Z,72.84
2017-07-19T03:53:54.188Z,72.17
2017-07-19T03:54:20.303Z,72.45
2017-07-19T03:54:46.436Z,72.26
2017-07-19T03:55:12.553Z,72.07
2017-07-19T03:55:38.759Z,72.45
2017-07-19T03:56:04.895Z,72.45
2017-07-19T03:56:31.072Z,72.17
2017-07-19T03:56:57.208Z,72.65
2017-07-19T03:57:23.340Z,72.07
2017-07-19T03:57:49.457Z,72.07
2017-07-19T03:58:15.602Z,72.74
2017-07-19T03:58:41.790Z,72.55
2017-07-19T03:59:07.935Z,72.26
2017-07-19T03:59:34.075Z,72.74
2017-07-19T04:00:00.206Z,72.65
2017-07-19T04:00:26.408Z,72.74
2017-07-19T04:00:52.575Z,72.07
2017-07-19T04:01:18.763Z,72.55
2017-07-19T04:01:44.884Z,72.07
2017-07-19T04:02:11.018Z,72.36
2017-07-19T04:02:37.141Z,72.94
2017-07-19T04:03:03.253Z,72.65
2017-07-19T04:03:29.364Z,72.74
2017-07-19T04:03:55.492Z,72.84
2017-07-19T04:04:21.655Z,72.65
2017-07-19T04:04:47.788Z,72.65
2017-07-19T04:05:13.917Z,72.55
2017-07-19T04:05:40.094Z,72.45
2017-07-19T04:06:06.233Z,72.55
2017-07-19T04:06:32.352Z,72.26
2017-07-19T04:06:58.544Z,72.26
2017-07-19T04:07:24.668Z,72.17
2017-07-19T04:07:50.811Z,72.07
2017-07-19T04:08:16.999Z,71.78
2017-07-19T04:08:43.150Z,72.07
2017-07-19T04:09:09.316Z,72.07
2017-07-19T04:09:35.472Z,72.17
2017-07-19T04:10:01.636Z,72.26
2017-07-19T04:10:27.775Z,72.74
2017-07-19T04:10:53.902Z,72.55
2017-07-19T04:11:20.000Z,72.74
2017-07-19T04:11:46.164Z,72.07
2017-07-19T04:12:12.345Z,72.07
2017-07-19T04:12:38.462Z,72.65
2017-07-19T04:13:04.618Z,72.65
2017-07-19T04:13:30.805Z,72.65
2017-07-19T04:13:56.922Z,72.55
2017-07-19T04:14:23.074Z,72.65
2017-07-19T04:14:49.209Z,72.94
2017-07-19T04:15:15.302Z,72.07
2017-07-19T04:15:41.424Z,72.07
2017-07-19T04:16:07.587Z,71.59
2017-07-19T04:16:33.729Z,71.88
2017-07-19T04:16:59.846Z,71.97
2017-07-19T04:17:26.043Z,71.97
2017-07-19T04:17:52.193Z,71.97
2017-07-19T04:18:18.333Z,71.69
2017-07-19T04:18:44.437Z,72.07
2017-07-19T04:19:10.564Z,71.97
2017-07-19T04:19:36.655Z,71.88
2017-07-19T04:20:02.760Z,72.07
2017-07-19T04:20:28.949Z,72.07
2017-07-19T04:20:55.036Z,71.69
2017-07-19T04:21:21.207Z,71.88
2017-07-19T04:21:47.342Z,71.69
2017-07-19T04:22:13.505Z,71.97
2017-07-19T04:22:39.636Z,72.17
2017-07-19T04:23:05.776Z,71.91
2017-07-19T04:23:31.931Z,71.78
2017-07-19T04:23:58.093Z,71.53
2017-07-19T04:24:24.252Z,71.4
2017-07-19T04:24:50.376Z,71.14
2017-07-19T04:25:16.540Z,71.62
2017-07-19T04:25:42.657Z,71.34
2017-07-19T04:26:08.803Z,71.34
2017-07-19T04:26:34.964Z,70.95
2017-07-19T04:27:01.084Z,71.24
2017-07-19T04:27:27.200Z,70.95
2017-07-19T04:27:53.358Z,71.72
2017-07-19T04:28:19.506Z,70.95
2017-07-19T04:28:45.669Z,71.34
2017-07-19T04:29:11.786Z,71.04
2017-07-19T04:29:37.929Z,71.04
2017-07-19T04:30:04.065Z,71.4
2017-07-19T04:30:30.207Z,71.14
2017-07-19T04:30:56.370Z,71.14
2017-07-19T04:31:22.503Z,71.34
2017-07-19T04:31:48.652Z,71.3
2017-07-19T04:32:14.769Z,71.3
2017-07-19T04:32:40.900Z,71.34
2017-07-19T04:33:07.059Z,71.62
2017-07-19T04:33:33.207Z,72.11
2017-07-19T04:33:59.331Z,72.07
2017-07-19T04:34:25.446Z,71.72
2017-07-19T04:34:51.582Z,71.4
2017-07-19T04:35:17.707Z,71.62
2017-07-19T04:35:43.797Z,71.53
2017-07-19T04:36:09.956Z,71.01
2017-07-19T04:36:36.164Z,71.43
2017-07-19T04:37:02.354Z,71.91
2017-07-19T04:37:28.533Z,71.72
2017-07-19T04:37:54.670Z,71.69
2017-07-19T04:38:20.827Z,71.34
2017-07-19T04:38:46.952Z,71.34
2017-07-19T04:39:13.043Z,71.34
2017-07-19T04:39:39.229Z,71.43
2017-07-19T04:40:05.383Z,71.62
2017-07-19T04:40:31.499Z,71.14
2017-07-19T04:40:57.659Z,71.62
2017-07-19T04:41:23.822Z,71.62
2017-07-19T04:41:49.934Z,71.53
2017-07-19T04:42:16.089Z,71.24
2017-07-19T04:42:42.222Z,71.53
2017-07-19T04:43:08.364Z,71.4
2017-07-19T04:43:34.459Z,71.43
2017-07-19T04:44:00.566Z,71.43
2017-07-19T04:44:26.687Z,71.43
2017-07-19T04:44:52.820Z,72.01
2017-07-19T04:45:18.935Z,71.43
2017-07-19T04:45:45.085Z,71.24
2017-07-19T04:46:11.245Z,71.53
2017-07-19T04:46:37.364Z,71.14
2017-07-19T04:47:03.460Z,71.34
2017-07-19T04:47:29.651Z,71.43
2017-07-19T04:47:55.770Z,71.34
2017-07-19T04:48:21.887Z,71.43
2017-07-19T04:48:48.049Z,71.43
2017-07-19T04:49:14.200Z,71.62
2017-07-19T04:49:40.317Z,70.95
2017-07-19T04:50:06.480Z,71.34
2017-07-19T04:50:32.599Z,71.04
2017-07-19T04:50:58.762Z,71.43
2017-07-19T04:51:24.909Z,70.66
2017-07-19T04:51:51.049Z,70.37
2017-07-19T04:52:17.159Z,70.76
2017-07-19T04:52:43.308Z,70.47
2017-07-19T04:53:09.473Z,71.04
2017-07-19T04:53:35.632Z,70.86
2017-07-19T04:54:01.787Z,70.95
2017-07-19T04:54:27.951Z,70.47
2017-07-19T04:54:54.053Z,70.37
2017-07-19T04:55:20.215Z,70.5
2017-07-19T04:55:46.333Z,70.6
2017-07-19T04:56:12.457Z,70.7
2017-07-19T04:56:38.623Z,69.93
2017-07-19T04:57:04.731Z,69.83
2017-07-19T04:57:30.859Z,69.06
2017-07-19T04:57:56.973Z,68.9
2017-07-19T04:58:23.102Z,68.71
2017-07-19T04:58:49.263Z,68.32
2017-07-19T04:59:15.400Z,67.84
2017-07-19T04:59:41.524Z,67.74
2017-07-19T05:00:07.714Z,67.26
2017-07-19T05:00:33.877Z,67.46
2017-07-19T05:00:59.997Z,67.36
2017-07-19T05:01:26.160Z,67.26
2017-07-19T05:01:52.332Z,67.26
2017-07-19T05:02:18.494Z,67.3
2017-07-19T05:02:44.710Z,67
2017-07-19T05:03:10.836Z,67.1
2017-07-19T05:03:36.926Z,66.82
2017-07-19T05:04:03.060Z,66.72
2017-07-19T05:04:29.215Z,67
2017-07-19T05:04:55.306Z,66.91
2017-07-19T05:05:21.434Z,66.43
2017-07-19T05:05:47.628Z,66.14
2017-07-19T05:06:13.794Z,66.33
2017-07-19T05:06:39.921Z,66.14
2017-07-19T05:07:06.015Z,66.24
2017-07-19T05:07:32.200Z,66.43
2017-07-19T05:07:58.330Z,66.14
2017-07-19T05:08:24.423Z,66.43
2017-07-19T05:08:50.551Z,66.72
2017-07-19T05:09:16.657Z,67
2017-07-19T05:09:42.793Z,66.62
2017-07-19T05:10:08.916Z,66.91
2017-07-19T05:10:35.080Z,66.91
2017-07-19T05:11:01.171Z,67.2
2017-07-19T05:11:27.320Z,66.72
2017-07-19T05:11:53.456Z,66.91
2017-07-19T05:12:19.578Z,66.82
2017-07-19T05:12:45.715Z,67
2017-07-19T05:13:11.825Z,66.91
2017-07-19T05:13:37.950Z,66.62
2017-07-19T05:14:04.085Z,66.91
2017-07-19T05:14:30.178Z,66.82
2017-07-19T05:14:56.299Z,67
2017-07-19T05:15:22.433Z,66.91
2017-07-19T05:15:48.555Z,66.72
2017-07-19T05:16:14.714Z,66.72
2017-07-19T05:16:40.897Z,66.24
2017-07-19T05:17:07.090Z,66.72
2017-07-19T05:17:33.294Z,66.91
2017-07-19T05:17:59.427Z,66.72
2017-07-19T05:18:25.524Z,66.91
2017-07-19T05:18:51.682Z,66.52
2017-07-19T05:19:17.827Z,66.72
2017-07-19T05:19:43.943Z,67
2017-07-19T05:20:10.053Z,66.62
2017-07-19T05:20:36.153Z,66.82
2017-07-19T05:21:02.310Z,67
2017-07-19T05:21:28.400Z,67
2017-07-19T05:21:54.500Z,66.91
2017-07-19T05:22:20.592Z,66.82
2017-07-19T05:22:46.720Z,66.82
2017-07-19T05:23:12.857Z,66.72
2017-07-19T05:23:39.029Z,66.91
2017-07-19T05:24:05.148Z,66.91
2017-07-19T05:24:31.281Z,66.72
2017-07-19T05:24:57.398Z,67
2017-07-19T05:25:23.542Z,66.91
2017-07-19T05:25:49.675Z,66.52
2017-07-19T05:26:15.824Z,66.24
2017-07-19T05:26:41.916Z,66.33
2017-07-19T05:27:08.105Z,66.24
2017-07-19T05:27:34.251Z,66.36
2017-07-19T05:28:00.419Z,66.33
2017-07-19T05:28:26.549Z,66.43
2017-07-19T05:28:52.679Z,66.04
2017-07-19T05:29:18.848Z,66.04
2017-07-19T05:29:44.993Z,66.62
2017-07-19T05:30:11.085Z,67.1
2017-07-19T05:30:37.250Z,66.52
2017-07-19T05:31:03.348Z,66.52
2017-07-19T05:31:29.462Z,66.46
2017-07-19T05:31:55.592Z,66.46
2017-07-19T05:32:21.746Z,66.52
2017-07-19T05:32:47.892Z,66.04
2017-07-19T05:33:14.016Z,66.33
2017-07-19T05:33:40.122Z,66.52
2017-07-19T05:34:06.258Z,66.43
2017-07-19T05:34:32.382Z,66.43
2017-07-19T05:34:58.502Z,66.27
2017-07-19T05:35:24.664Z,66.14
2017-07-19T05:35:50.794Z,66.14
2017-07-19T05:36:16.885Z,66.52
2017-07-19T05:36:42.990Z,66.14
2017-07-19T05:37:09.096Z,66.91
2017-07-19T05:37:35.208Z,66.82